AirNav   Bose Proflight Series 2 Wireless Aviation Headset
 
 457 users online  

1CN1 Orange County Global Medical Center Heliport
Santa Ana, California, USA

GOING TO SANTA ANA?


FAA INFORMATION EFFECTIVE 07 NOVEMBER 2019

Location

FAA Identifier: 1CN1
Lat/Long: 33-45-17.7000N 117-49-57.9000W
33-45.295000N 117-49.965000W
33.7549167,-117.8327500
(estimated)
Elevation: 178 ft. / 54 m (estimated)
From city: 2 miles ENE of SANTA ANA, CA
Time zone: UTC -8 (UTC -7 during Daylight Saving Time)
Zip code: 92701

Heliport Operations

Heliport use: Private use. Permission required prior to landing
Activation date: 06/2010
Control tower: no
ARTCC: LOS ANGELES CENTER
FSS: RIVERSIDE FLIGHT SERVICE STATION
Attendance: CONTINUOUS
Wind indicator: lighted
Segmented circle: no
Lights: SS-SR

Heliport Communications

WX ASOS at SNA (5 nm S): PHONE 714-424-0590
WX ASOS at FUL (10 nm NW): PHONE 714-870-1372
WX AWOS-3PT at AJO (14 nm NE): 132.175 (951-340-4764)
WX ASOS at LGB (16 nm W): PHONE 562-424-0572
WX ASOS at CNO (16 nm NE): PHONE 909-393-5823

Nearby radio navigation aids

VOR radial/distance  VOR name  Freq  Var
ELBr299/6.9EL TORO VOR/DME117.2014E
SLIr084/11.2SEAL BEACH VORTAC115.7015E
PDZr222/18.0PARADISE VORTAC112.2015E
POMr172/19.5POMONA VORTAC110.4015E
RALr224/(22.5)RIVERSIDE VOR112.4014E
LAXr095/31.7LOS ANGELES VORTAC113.6015E
HDFr254/(32.3)HOMELAND VOR113.4014E
SMOr101/34.7SANTA MONICA VOR/DME110.8015E
SXCr037/37.2SANTA CATALINA VORTAC114.1515E
OCNr311/37.2OCEANSIDE VORTAC115.3015E

Heliport Services

Runway Information

Helipad H1

Dimensions: 50 x 50 ft. / 15 x 15 m
Surface: concrete
Runway edge lights: PERI
Latitude: 33-45.295000N
Longitude: 117-49.965000W
Elevation: 178.0 ft.
Traffic pattern: leftleft

Heliport Ownership and Management from official FAA records

Ownership: Privately-owned
Owner: ORANGE COUNTY GLOBAL MEDICAL CENTER
1001 N TUSTIN AVE
SANTA ANA, CA 92705
Phone 714-953-3500
Manager: ROBERT KESSLER
1001 N TUSTIN AVE
SANTA ANA, CA 92705
Phone 714-953-3641

Additional Remarks

FOR CD CTC LOS ANGELES ARTCC AT 661-575-2079.

Instrument Procedures

There are no published instrument procedures at 1CN1.

Some nearby airports with instrument procedures:

KSNA - John Wayne-Orange County Airport (5 nm S)
KFUL - Fullerton Municipal Airport (10 nm NW)
KSLI - Los Alamitos Army Airfield (11 nm W)
KAJO - Corona Municipal Airport (14 nm NE)
KLGB - Long Beach Airport (Daugherty Field) (16 nm W)
KCNO - Chino Airport (16 nm NE)
 
Loc | Ops | Rwys | IFR | FBO | Links
Com | Nav | Svcs | Stats | Notes

San Bernardino International Airport Authority
 
Aerial photo
No photo
 
Sectional chart

 
Airport distance calculator
Flying to Orange County Global Medical Center Heliport? Find the distance to fly.

From to 1CN1

Sunrise and sunset
Times for 19-Nov-2019
 Local
(UTC-8)
 Zulu
(UTC)
Morning civil twilight06:0214:02
Sunrise06:2814:28
Sunset16:4500:45
Evening civil twilight17:1201:12

Current date and time
Zulu (UTC)  19-Nov-2019 09:54:28
Local (UTC-8)  19-Nov-2019 01:54:28
 
METAR
KSNA 
6nm S 
190853Z AUTO 00000KT 10SM CLR 18/06 A2978 RMK AO2 SLP084 T01830061 58013
KSLI 
10nm W 
190858Z AUTO 36006KT 10SM CLR 15/09 A2978 RMK AO2 SLP087 T01460090 58014 PNO $
KFUL 
10nm NW 
190853Z AUTO 00000KT 10SM CLR 16/06 A2979 RMK AO2 SLP087 T01610056 58009
KAJO 
14nm NE 
190856Z AUTO 00000KT 10SM CLR 12/03 RMK AO2 SLPNO 6//// T01220033 $
KLGB 
16nm W 
190853Z AUTO 00000KT 10SM CLR 16/11 A2980 RMK AO2 SLP090 T01610106 58007
KCNO 
17nm NE 
190853Z AUTO 00000KT 8SM CLR 14/04 A2983 RMK AO2 SLP096 T01390039 58008
TAF
KSNA 
6nm S 
190520Z 1906/2006 VRB03KT P6SM BKN250 FM192000 20009KT P6SM BKN100 FM200300 19010KT P6SM VCSH SCT015 BKN025
KSLI 
10nm W 
1905/2011 VRB06KT 9999 BKN200 QNH2970INS BECMG 1922/1923 15009KT 9999 VCSH BKN100 OVC200 QNH2960INS TX19/1905Z TN12/1913Z
KLGB 
16nm W 
190546Z 1906/2006 VRB03KT P6SM BKN250 FM191200 12005KT P6SM BKN200 FM191900 20008KT P6SM BKN100 FM192200 20008KT P6SM VCSH OVC080 FM200400 20008KT P6SM VCSH OVC040
NOTAMs
Click for the latest NOTAMs
NOTAMs are issued by the DoD/FAA and will open in a separate window not controlled by AirNav.

 

 
 

Would you like to see your business listed on this page?

 If your business provides an interesting product or service to pilots, flight crews, aircraft, or users of the Orange County Global Medical Center Heliport, you should consider listing it here.  To start the listing process, click on the button below
 
Add a business
 

Other Pages about Orange County Global Medical Center Heliport

Update a link
 
Copyright © AirNav, LLC. All rights reserved. Privacy Policy  Contact